TimePST,TemperatureF,Dew PointF,Humidity,Sea Level PressureIn,VisibilityMPH,Wind Direction,Wind SpeedMPH,Gust SpeedMPH,PrecipitationIn,Events,Conditions,WindDirDegrees,DateUTC
12:58 AM,33.1,0.1,25,30.18,10.0,WSW,5.8,-,N/A,,Clear,250,2012-11-14 08:58:00
1:58 AM,28.0,-1.1,28,30.18,10.0,SW,3.5,-,N/A,,Clear,230,2012-11-14 09:58:00
2:58 AM,29.5,-3.5,24,30.17,10.0,West,2.3,-,N/A,,Clear,260,2012-11-14 10:58:00
3:58 AM,28.6,-3.8,25,30.18,10.0,West,3.5,-,N/A,,Clear,260,2012-11-14 11:58:00
4:58 AM,24.3,-4.0,29,30.19,10.0,SSE,3.5,-,N/A,,Clear,160,2012-11-14 12:58:00
5:58 AM,24.8,-3.6,29,30.20,90.0,NNW,3.5,-,N/A,,Partly Cloudy,330,2012-11-14 13:58:00
6:55 AM,25.5,-6.5,25,30.22,90.0,North,3.5,-,N/A,,Mostly Cloudy,350,2012-11-14 14:55:00
7:58 AM,30.2,-2.2,25,30.24,90.0,Calm,Calm,-,N/A,,Mostly Cloudy,0,2012-11-14 15:58:00
8:58 AM,33.6,-0.9,23,30.25,90.0,East,1.2,-,N/A,,Mostly Cloudy,90,2012-11-14 16:58:00
9:55 AM,40.8,2.7,20,30.24,90.0,West,3.5,-,N/A,,Mostly Cloudy,270,2012-11-14 17:55:00
10:55 AM,50.2,5.7,16,30.20,90.0,Calm,Calm,-,N/A,,Mostly Cloudy,0,2012-11-14 18:55:00
11:55 AM,54.5,6.3,14,30.15,90.0,ENE,4.6,-,N/A,,Mostly Cloudy,60,2012-11-14 19:55:00
12:55 PM,57.4,7.0,13,30.13,90.0,NNE,3.5,-,N/A,,Mostly Cloudy,20,2012-11-14 20:55:00
1:55 PM,61.3,8.6,12,30.11,90.0,NNE,3.5,-,N/A,,Mostly Cloudy,20,2012-11-14 21:55:00
2:55 PM,66.2,8.2,10,30.06,90.0,NE,1.2,-,N/A,,Mostly Cloudy,50,2012-11-14 22:55:00
3:55 PM,63.1,11.1,13,30.09,90.0,Calm,Calm,-,N/A,,Mostly Cloudy,0,2012-11-14 23:55:00
4:55 PM,59.9,9.3,14,30.09,90.0,Calm,Calm,-,N/A,,Mostly Cloudy,0,2012-11-15 00:55:00
4:58 PM,59.9,9.3,14,30.10,10.0,Calm,Calm,-,N/A,,Clear,0,2012-11-15 00:58:00
5:58 PM,49.5,7.7,18,30.12,80.0,SW,2.3,-,N/A,,Mostly Cloudy,230,2012-11-15 01:58:00
6:58 PM,46.0,8.4,22,30.14,40.0,SSE,2.3,-,N/A,,Mostly Cloudy,150,2012-11-15 02:58:00
7:58 PM,41.5,3.4,21,30.15,40.0,SE,3.5,-,N/A,,Mostly Cloudy,140,2012-11-15 03:58:00
8:58 PM,42.4,5.2,21,30.15,40.0,Calm,Calm,-,N/A,,Mostly Cloudy,0,2012-11-15 04:58:00
9:58 PM,41.7,5.5,22,30.14,40.0,WSW,2.3,-,N/A,,Mostly Cloudy,250,2012-11-15 05:58:00
10:58 PM,38.8,4.3,24,30.12,10.0,SSW,3.5,-,N/A,,Clear,210,2012-11-15 06:58:00
11:58 PM,38.1,4.5,25,30.11,10.0,West,1.2,-,N/A,,Clear,260,2012-11-15 07:58:00